Etusivu
METAR-TAF:

METAR-TAF

Lentoasemat :

Bandar Kangan, Iran

Leveyspiiri: 27-49-14N, Pituuspiiri: 52-21-08E, korkeus merenpinnasta: 662 m

Tämänhetkinen sää

Tämä raportti tehtiin 1 tunti ja 7 minuuttia sitten, kello 09.00 UTC
Tuuli 6 kn idästä
Lämpötila 25°C
Kosteus 44%
Ilmanpaine 1018 hPa
Näkyvyys: 8000 m

METAR: OIBJ 250900Z 08006KT 8000 NSC 25/12 Q1018

Aika: 13:37 (10:07 UTC)


TAF: puuttuu

Säähavainnot ja -ennusteet yli 4000 lentoasemalta (METAR- ja TAF-raportit).

Käytössä olevat sääasemat on merkitty karttaan keltaisilla ja punaisilla pisteillä.

Aseta hiiri pisteen päälle nähdäksesi sääaseman nimen.

Klikkaa sitten nähdäksesi säähavainnot ja -ennusteet.

Kartan vaihtaminen: klikkaa mustalla rastilla varustettuja vihreitä pisteitä, niin voit zoomata sisään; viivalla varustettua vihreää pistettä, niin voit zoomata ulos tai vihreitä nuolia, niin pääset viereisille kartoille.


METAR-TAF: